Love Boat — OT3861 — position and weather

sailwx.info

Track history (hours):
 
Tides and Currents Weather Stations Pressure Air Temp Water Temp Dewpoint Dewpoint Depression Visibility Wind Speed Wind Dir Waves Ship Positions

Love Boat

Last reported at 2018-Feb-23 05:28 UTC. Time now 2018-Feb-23 06:17 UTC.
Position N 51°01' E 006°58'.

Length 110 m.

Type: Ship. MMSI: 205386190.

Date/timePositionNaut miles runAvg speedWind from/ knotsBaromVisibWave heightAir tempDewpointWater temp
2018-Feb-23 05:28N 51°01' E 006°58'2 0.2
2018-Feb-22 18:48N 50°59' E 006°58'1 4.0
2018-Feb-22 18:30N 50°58' E 006°60'4 7.9
2018-Feb-22 18:00N 50°55' E 006°59'3 5.5
2018-Feb-22 17:27N 50°52' E 007°01'3 5.5
2018-Feb-22 16:56N 50°49' E 007°01'4 8.6
2018-Feb-22 16:27N 50°46' E 007°05'5 8.6
2018-Feb-22 15:52N 50°42' E 007°10'  
2018-Feb-14 23:54N 49°38' E 008°23'3 8.7
2018-Feb-14 23:30N 49°35' E 008°25'4 8.4
2018-Feb-14 23:00N 49°31' E 008°26'3 7.0
2018-Feb-14 22:30N 49°27' E 008°26'3 6.4
2018-Feb-14 22:00N 49°25' E 008°30'5 8.6
2018-Feb-14 21:28N 49°20' E 008°28'  
Track history (hours):
 
Tides and Currents Weather Stations Pressure Air Temp Water Temp Dewpoint Dewpoint Depression Visibility Wind Speed Wind Dir Waves Ship Positions

Love Boat

Last reported at 2018-Feb-23 05:28 UTC. Time now 2018-Feb-23 06:17 UTC.
Position N 51°01' E 006°58'.

Length 110 m.

Type: Ship. MMSI: 205386190.

Date/timePositionNaut miles runAvg speedWind from/ knotsBaromVisibWave heightAir tempDewpointWater temp
2018-Feb-23 05:28N 51°01' E 006°58'2 0.2
2018-Feb-22 18:48N 50°59' E 006°58'1 4.0
2018-Feb-22 18:30N 50°58' E 006°60'4 7.9
2018-Feb-22 18:00N 50°55' E 006°59'3 5.5
2018-Feb-22 17:27N 50°52' E 007°01'3 5.5
2018-Feb-22 16:56N 50°49' E 007°01'4 8.6
2018-Feb-22 16:27N 50°46' E 007°05'5 8.6
2018-Feb-22 15:52N 50°42' E 007°10'  
2018-Feb-14 23:54N 49°38' E 008°23'3 8.7
2018-Feb-14 23:30N 49°35' E 008°25'4 8.4
2018-Feb-14 23:00N 49°31' E 008°26'3 7.0
2018-Feb-14 22:30N 49°27' E 008°26'3 6.4
2018-Feb-14 22:00N 49°25' E 008°30'5 8.6
2018-Feb-14 21:28N 49°20' E 008°28'  

Dump ship's entire track history